sensor_id;sensor_type;location;lat;lon;timestamp;pressure;altitude;pressure_sealevel;temperature;humidity
18137;BME280;9194;42.632;23.298;2024-03-23T00:52:38;92633.69;;;2.18;97.47
18137;BME280;9194;42.632;23.298;2024-03-23T00:57:39;92631.94;;;2.18;97.74
18137;BME280;9194;42.632;23.298;2024-03-23T01:02:41;92633.25;;;2.14;98.49
18137;BME280;9194;42.632;23.298;2024-03-23T01:07:42;92631.50;;;2.15;97.84
18137;BME280;9194;42.632;23.298;2024-03-23T01:12:43;92628.72;;;2.16;95.60
18137;BME280;9194;42.632;23.298;2024-03-23T01:17:44;92628.63;;;2.10;97.20
18137;BME280;9194;42.632;23.298;2024-03-23T01:22:45;92620.44;;;2.06;98.00
18137;BME280;9194;42.632;23.298;2024-03-23T01:27:47;92623.38;;;2.03;97.96
18137;BME280;9194;42.632;23.298;2024-03-23T01:32:48;92625.00;;;1.96;97.90
18137;BME280;9194;42.632;23.298;2024-03-23T01:37:49;92625.81;;;1.96;97.65
18137;BME280;9194;42.632;23.298;2024-03-23T01:43:07;92621.50;;;1.97;96.12
18137;BME280;9194;42.632;23.298;2024-03-23T01:48:11;92630.66;;;1.91;96.59
18137;BME280;9194;42.632;23.298;2024-03-23T01:53:14;92622.19;;;1.83;96.81
18137;BME280;9194;42.632;23.298;2024-03-23T01:58:18;92633.09;;;1.85;96.99
18137;BME280;9194;42.632;23.298;2024-03-23T02:03:23;92627.50;;;1.81;98.46
18137;BME280;9194;42.632;23.298;2024-03-23T02:08:26;92627.69;;;1.80;99.12
18137;BME280;9194;42.632;23.298;2024-03-23T02:13:27;92622.72;;;1.78;99.77
18137;BME280;9194;42.632;23.298;2024-03-23T02:18:28;92624.97;;;1.73;99.75
18137;BME280;9194;42.632;23.298;2024-03-23T02:23:29;92623.41;;;1.64;99.21
18137;BME280;9194;42.632;23.298;2024-03-23T02:28:31;92625.66;;;1.67;98.07
18137;BME280;9194;42.632;23.298;2024-03-23T02:33:32;92627.94;;;1.62;98.62
18137;BME280;9194;42.632;23.298;2024-03-23T02:38:35;92629.03;;;1.59;98.63
18137;BME280;9194;42.632;23.298;2024-03-23T02:43:36;92624.22;;;1.64;99.35
18137;BME280;9194;42.632;23.298;2024-03-23T02:48:37;92619.28;;;1.63;99.71
18137;BME280;9194;42.632;23.298;2024-03-23T02:53:38;92616.22;;;1.59;100.00
18137;BME280;9194;42.632;23.298;2024-03-23T02:58:40;92628.88;;;1.61;100.00
18137;BME280;9194;42.632;23.298;2024-03-23T03:03:41;92616.88;;;1.53;100.00
18137;BME280;9194;42.632;23.298;2024-03-23T03:08:42;92613.34;;;1.54;100.00
18137;BME280;9194;42.632;23.298;2024-03-23T03:13:43;92616.28;;;1.51;100.00
18137;BME280;9194;42.632;23.298;2024-03-23T03:18:45;92620.59;;;1.51;100.00
18137;BME280;9194;42.632;23.298;2024-03-23T03:23:47;92612.91;;;1.51;100.00
18137;BME280;9194;42.632;23.298;2024-03-23T03:28:51;92623.78;;;1.53;100.00
18137;BME280;9194;42.632;23.298;2024-03-23T03:33:52;92614.66;;;1.50;100.00
18137;BME280;9194;42.632;23.298;2024-03-23T03:38:53;92619.66;;;1.44;100.00
18137;BME280;9194;42.632;23.298;2024-03-23T03:43:55;92626.56;;;1.43;100.00
18137;BME280;9194;42.632;23.298;2024-03-23T03:48:56;92615.34;;;1.36;100.00
18137;BME280;9194;42.632;23.298;2024-03-23T03:53:57;92616.50;;;1.34;100.00
18137;BME280;9194;42.632;23.298;2024-03-23T03:58:59;92623.84;;;1.37;100.00
18137;BME280;9194;42.632;23.298;2024-03-23T04:04:00;92619.06;;;1.34;100.00
18137;BME280;9194;42.632;23.298;2024-03-23T04:09:01;92625.63;;;1.36;100.00
18137;BME280;9194;42.632;23.298;2024-03-23T04:14:02;92612.16;;;1.34;100.00
18137;BME280;9194;42.632;23.298;2024-03-23T04:19:03;92630.44;;;1.39;100.00
18137;BME280;9194;42.632;23.298;2024-03-23T04:24:05;92627.69;;;1.41;100.00
18137;BME280;9194;42.632;23.298;2024-03-23T04:29:07;92626.56;;;1.43;100.00
18137;BME280;9194;42.632;23.298;2024-03-23T04:34:08;92624.94;;;1.42;100.00
18137;BME280;9194;42.632;23.298;2024-03-23T04:39:10;92628.16;;;1.44;100.00
18137;BME280;9194;42.632;23.298;2024-03-23T04:44:11;92636.97;;;1.50;100.00
18137;BME280;9194;42.632;23.298;2024-03-23T04:49:12;92631.28;;;1.62;100.00
18137;BME280;9194;42.632;23.298;2024-03-23T04:54:14;92638.41;;;1.75;100.00
18137;BME280;9194;42.632;23.298;2024-03-23T04:59:15;92634.88;;;1.84;100.00
18137;BME280;9194;42.632;23.298;2024-03-23T05:04:16;92642.16;;;2.03;100.00
18137;BME280;9194;42.632;23.298;2024-03-23T05:09:17;92634.94;;;2.22;100.00
18137;BME280;9194;42.632;23.298;2024-03-23T05:14:19;92630.00;;;2.43;100.00
18137;BME280;9194;42.632;23.298;2024-03-23T05:19:20;92633.63;;;2.71;100.00
18137;BME280;9194;42.632;23.298;2024-03-23T05:24:21;92618.59;;;2.98;98.39
18137;BME280;9194;42.632;23.298;2024-03-23T05:29:22;92614.16;;;3.21;95.95
18137;BME280;9194;42.632;23.298;2024-03-23T05:34:23;92620.38;;;3.56;93.10
18137;BME280;9194;42.632;23.298;2024-03-23T05:39:25;92605.69;;;3.86;91.54
18137;BME280;9194;42.632;23.298;2024-03-23T05:44:26;92613.09;;;4.10;90.18
18137;BME280;9194;42.632;23.298;2024-03-23T05:49:27;92618.94;;;4.40;89.05
18137;BME280;9194;42.632;23.298;2024-03-23T05:54:29;92619.66;;;4.55;87.64
18137;BME280;9194;42.632;23.298;2024-03-23T05:59:31;92623.53;;;4.66;86.94
18137;BME280;9194;42.632;23.298;2024-03-23T06:04:32;92608.97;;;4.79;86.58
18137;BME280;9194;42.632;23.298;2024-03-23T06:09:34;92618.00;;;4.96;85.95
18137;BME280;9194;42.632;23.298;2024-03-23T06:14:35;92608.38;;;5.05;86.44
18137;BME280;9194;42.632;23.298;2024-03-23T06:19:36;92604.88;;;5.19;85.10
18137;BME280;9194;42.632;23.298;2024-03-23T06:24:37;92608.59;;;5.45;84.54
18137;BME280;9194;42.632;23.298;2024-03-23T06:29:38;92601.09;;;5.50;83.55
18137;BME280;9194;42.632;23.298;2024-03-23T06:34:43;92601.50;;;5.53;81.53
18137;BME280;9194;42.632;23.298;2024-03-23T06:39:46;92596.59;;;5.71;81.49
18137;BME280;9194;42.632;23.298;2024-03-23T06:44:47;92605.66;;;5.89;80.66
18137;BME280;9194;42.632;23.298;2024-03-23T06:49:48;92599.78;;;6.14;80.98
18137;BME280;9194;42.632;23.298;2024-03-23T06:54:50;92605.41;;;6.38;79.19
18137;BME280;9194;42.632;23.298;2024-03-23T06:59:51;92598.84;;;6.42;78.14
18137;BME280;9194;42.632;23.298;2024-03-23T07:04:52;92598.28;;;6.59;79.09
18137;BME280;9194;42.632;23.298;2024-03-23T07:09:53;92604.47;;;6.78;77.36
18137;BME280;9194;42.632;23.298;2024-03-23T07:14:54;92592.09;;;6.93;77.70
18137;BME280;9194;42.632;23.298;2024-03-23T07:19:56;92584.16;;;7.08;78.51
18137;BME280;9194;42.632;23.298;2024-03-23T07:25:00;92589.72;;;7.18;77.31
18137;BME280;9194;42.632;23.298;2024-03-23T07:30:02;92587.72;;;7.27;77.83
18137;BME280;9194;42.632;23.298;2024-03-23T07:35:03;92574.97;;;7.32;77.87
18137;BME280;9194;42.632;23.298;2024-03-23T07:40:05;92577.06;;;7.61;75.47
18137;BME280;9194;42.632;23.298;2024-03-23T07:45:07;92571.06;;;7.74;74.97
18137;BME280;9194;42.632;23.298;2024-03-23T07:50:10;92579.97;;;7.84;72.50
18137;BME280;9194;42.632;23.298;2024-03-23T07:55:11;92575.31;;;8.00;72.80
18137;BME280;9194;42.632;23.298;2024-03-23T08:00:14;92563.63;;;7.91;71.75
18137;BME280;9194;42.632;23.298;2024-03-23T08:05:15;92575.91;;;8.08;72.24
18137;BME280;9194;42.632;23.298;2024-03-23T08:10:16;92563.97;;;8.39;73.34
18137;BME280;9194;42.632;23.298;2024-03-23T08:15:19;92572.19;;;8.29;69.85
18137;BME280;9194;42.632;23.298;2024-03-23T08:20:20;92564.84;;;8.57;70.37
18137;BME280;9194;42.632;23.298;2024-03-23T08:25:21;92567.38;;;8.71;68.31
18137;BME280;9194;42.632;23.298;2024-03-23T08:30:23;92558.63;;;8.90;67.76
18137;BME280;9194;42.632;23.298;2024-03-23T08:35:24;92555.28;;;9.07;67.38
18137;BME280;9194;42.632;23.298;2024-03-23T08:40:25;92553.38;;;9.39;65.72
18137;BME280;9194;42.632;23.298;2024-03-23T08:45:26;92541.84;;;9.54;63.98
18137;BME280;9194;42.632;23.298;2024-03-23T08:50:28;92539.75;;;9.80;62.30
18137;BME280;9194;42.632;23.298;2024-03-23T08:55:29;92535.59;;;9.91;62.26
18137;BME280;9194;42.632;23.298;2024-03-23T09:00:30;92536.13;;;10.00;61.97
18137;BME280;9194;42.632;23.298;2024-03-23T09:05:32;92524.28;;;10.15;61.59
18137;BME280;9194;42.632;23.298;2024-03-23T09:10:40;92524.13;;;9.99;60.75
18137;BME280;9194;42.632;23.298;2024-03-23T09:15:50;92514.50;;;10.17;58.95
18137;BME280;9194;42.632;23.298;2024-03-23T09:20:51;92504.88;;;10.48;58.25
18137;BME280;9194;42.632;23.298;2024-03-23T09:25:54;92489.78;;;10.38;57.74
18137;BME280;9194;42.632;23.298;2024-03-23T09:31:05;92493.00;;;10.52;56.39
18137;BME280;9194;42.632;23.298;2024-03-23T09:36:07;92489.06;;;10.84;56.34
18137;BME280;9194;42.632;23.298;2024-03-23T09:41:09;92477.41;;;10.98;54.38
18137;BME280;9194;42.632;23.298;2024-03-23T09:46:10;92472.31;;;11.03;53.98
18137;BME280;9194;42.632;23.298;2024-03-23T09:51:13;92461.31;;;11.01;53.69
18137;BME280;9194;42.632;23.298;2024-03-23T09:56:14;92452.69;;;11.24;53.61
18137;BME280;9194;42.632;23.298;2024-03-23T10:01:17;92448.72;;;11.45;54.47
18137;BME280;9194;42.632;23.298;2024-03-23T10:06:21;92444.94;;;11.64;52.94
18137;BME280;9194;42.632;23.298;2024-03-23T10:11:23;92426.78;;;11.69;53.21
18137;BME280;9194;42.632;23.298;2024-03-23T10:16:26;92426.00;;;11.97;52.64
18137;BME280;9194;42.632;23.298;2024-03-23T10:21:28;92424.00;;;12.16;52.11
18137;BME280;9194;42.632;23.298;2024-03-23T10:26:29;92418.41;;;11.96;51.46
18137;BME280;9194;42.632;23.298;2024-03-23T10:31:31;92413.75;;;11.98;52.21
18137;BME280;9194;42.632;23.298;2024-03-23T10:36:34;92403.72;;;12.06;49.79
18137;BME280;9194;42.632;23.298;2024-03-23T10:41:36;92388.19;;;12.28;50.64
18137;BME280;9194;42.632;23.298;2024-03-23T10:46:37;92378.09;;;12.70;49.32
18137;BME280;9194;42.632;23.298;2024-03-23T10:51:39;92366.00;;;13.02;48.55
18137;BME280;9194;42.632;23.298;2024-03-23T10:56:40;92357.84;;;12.99;47.64
18137;BME280;9194;42.632;23.298;2024-03-23T11:01:58;92343.63;;;12.68;48.21
18137;BME280;9194;42.632;23.298;2024-03-23T11:07:01;92330.75;;;12.83;47.06
18137;BME280;9194;42.632;23.298;2024-03-23T11:17:23;92317.38;;;12.80;47.58
18137;BME280;9194;42.632;23.298;2024-03-23T11:27:52;92296.56;;;13.28;47.75
18137;BME280;9194;42.632;23.298;2024-03-23T11:32:55;92297.47;;;13.39;46.84
18137;BME280;9194;42.632;23.298;2024-03-23T11:38:14;92291.47;;;13.38;47.78
18137;BME280;9194;42.632;23.298;2024-03-23T11:43:16;92286.47;;;13.37;47.48
18137;BME280;9194;42.632;23.298;2024-03-23T11:48:22;92262.25;;;13.46;46.98
18137;BME280;9194;42.632;23.298;2024-03-23T11:53:24;92257.22;;;13.40;47.71
18137;BME280;9194;42.632;23.298;2024-03-23T11:58:28;92238.81;;;13.56;47.71
18137;BME280;9194;42.632;23.298;2024-03-23T12:03:31;92231.53;;;13.64;47.21
18137;BME280;9194;42.632;23.298;2024-03-23T12:08:35;92225.69;;;13.83;45.34
18137;BME280;9194;42.632;23.298;2024-03-23T12:13:36;92215.03;;;13.90;44.06
18137;BME280;9194;42.632;23.298;2024-03-23T12:18:38;92218.25;;;14.02;43.82
18137;BME280;9194;42.632;23.298;2024-03-23T12:23:41;92200.44;;;14.04;44.69
18137;BME280;9194;42.632;23.298;2024-03-23T12:28:42;92204.69;;;14.10;43.68
18137;BME280;9194;42.632;23.298;2024-03-23T12:33:44;92195.81;;;14.16;42.39
18137;BME280;9194;42.632;23.298;2024-03-23T12:38:46;92190.69;;;14.31;41.60
18137;BME280;9194;42.632;23.298;2024-03-23T12:43:48;92181.34;;;14.41;40.60
18137;BME280;9194;42.632;23.298;2024-03-23T12:48:50;92171.91;;;14.45;40.73
18137;BME280;9194;42.632;23.298;2024-03-23T12:53:51;92161.19;;;14.46;41.68
18137;BME280;9194;42.632;23.298;2024-03-23T12:58:52;92155.72;;;14.53;40.54
18137;BME280;9194;42.632;23.298;2024-03-23T13:03:55;92145.41;;;14.36;38.69
18137;BME280;9194;42.632;23.298;2024-03-23T13:08:56;92145.72;;;14.39;40.06
18137;BME280;9194;42.632;23.298;2024-03-23T13:13:57;92136.06;;;14.50;36.21
18137;BME280;9194;42.632;23.298;2024-03-23T13:18:58;92123.50;;;14.52;38.48
18137;BME280;9194;42.632;23.298;2024-03-23T13:24:02;92134.78;;;14.53;37.85
18137;BME280;9194;42.632;23.298;2024-03-23T13:29:04;92119.31;;;14.56;37.28
18137;BME280;9194;42.632;23.298;2024-03-23T13:34:05;92125.88;;;14.54;38.70
18137;BME280;9194;42.632;23.298;2024-03-23T13:39:07;92112.50;;;14.50;35.91
18137;BME280;9194;42.632;23.298;2024-03-23T13:44:13;92091.91;;;14.79;37.38
18137;BME280;9194;42.632;23.298;2024-03-23T13:54:26;92101.25;;;14.55;37.42
18137;BME280;9194;42.632;23.298;2024-03-23T13:59:27;92098.41;;;14.66;36.33
18137;BME280;9194;42.632;23.298;2024-03-23T14:04:29;92089.47;;;14.57;35.88
18137;BME280;9194;42.632;23.298;2024-03-23T14:09:30;92084.47;;;14.46;37.36
18137;BME280;9194;42.632;23.298;2024-03-23T14:14:33;92082.38;;;14.53;36.48
18137;BME280;9194;42.632;23.298;2024-03-23T14:19:35;92088.13;;;14.45;36.53
18137;BME280;9194;42.632;23.298;2024-03-23T14:24:36;92074.50;;;14.37;37.52
18137;BME280;9194;42.632;23.298;2024-03-23T14:29:37;92064.53;;;14.45;37.61
18137;BME280;9194;42.632;23.298;2024-03-23T14:34:38;92064.28;;;14.41;37.62
18137;BME280;9194;42.632;23.298;2024-03-23T14:39:40;92059.22;;;14.24;37.62
18137;BME280;9194;42.632;23.298;2024-03-23T14:44:42;92062.03;;;14.03;38.76
18137;BME280;9194;42.632;23.298;2024-03-23T14:49:44;92059.84;;;13.84;40.76
18137;BME280;9194;42.632;23.298;2024-03-23T14:54:48;92050.59;;;13.67;42.13
18137;BME280;9194;42.632;23.298;2024-03-23T14:59:50;92048.00;;;13.30;44.71
18137;BME280;9194;42.632;23.298;2024-03-23T15:04:51;92045.44;;;13.03;44.63
18137;BME280;9194;42.632;23.298;2024-03-23T15:09:52;92037.06;;;12.69;46.26
18137;BME280;9194;42.632;23.298;2024-03-23T15:14:54;92035.38;;;12.31;47.67
18137;BME280;9194;42.632;23.298;2024-03-23T15:19:57;92031.28;;;11.91;49.13
18137;BME280;9194;42.632;23.298;2024-03-23T15:24:58;92035.47;;;11.54;50.61
18137;BME280;9194;42.632;23.298;2024-03-23T15:29:59;92037.19;;;11.27;51.14
18137;BME280;9194;42.632;23.298;2024-03-23T15:35:01;92035.25;;;11.00;53.05
18137;BME280;9194;42.632;23.298;2024-03-23T15:40:02;92031.88;;;10.83;54.36
18137;BME280;9194;42.632;23.298;2024-03-23T15:45:06;92027.81;;;10.59;54.54
18137;BME280;9194;42.632;23.298;2024-03-23T15:50:08;92033.31;;;10.46;56.16
18137;BME280;9194;42.632;23.298;2024-03-23T15:55:09;92041.63;;;10.31;56.15
18137;BME280;9194;42.632;23.298;2024-03-23T16:00:12;92046.22;;;10.24;56.65
18137;BME280;9194;42.632;23.298;2024-03-23T16:05:15;92038.56;;;10.06;57.21
18137;BME280;9194;42.632;23.298;2024-03-23T16:10:16;92037.94;;;9.87;58.33
18137;BME280;9194;42.632;23.298;2024-03-23T16:15:17;92049.59;;;9.73;58.63
18137;BME280;9194;42.632;23.298;2024-03-23T16:20:19;92029.84;;;10.12;56.55
18137;BME280;9194;42.632;23.298;2024-03-23T16:25:22;92015.81;;;10.13;58.61
18137;BME280;9194;42.632;23.298;2024-03-23T16:30:24;92013.38;;;10.51;53.72
18137;BME280;9194;42.632;23.298;2024-03-23T16:35:25;92002.66;;;10.98;52.58
18137;BME280;9194;42.632;23.298;2024-03-23T16:40:27;91998.59;;;11.24;52.23
18137;BME280;9194;42.632;23.298;2024-03-23T16:45:28;92003.28;;;11.43;51.61
18137;BME280;9194;42.632;23.298;2024-03-23T16:50:35;91990.47;;;11.59;51.27
18137;BME280;9194;42.632;23.298;2024-03-23T16:55:36;91977.97;;;11.61;51.61
18137;BME280;9194;42.632;23.298;2024-03-23T17:00:37;91986.06;;;11.81;51.11
18137;BME280;9194;42.632;23.298;2024-03-23T17:05:39;91974.78;;;11.75;51.75
18137;BME280;9194;42.632;23.298;2024-03-23T17:10:40;91973.66;;;11.71;51.37
18137;BME280;9194;42.632;23.298;2024-03-23T17:15:43;91976.38;;;11.76;51.04
18137;BME280;9194;42.632;23.298;2024-03-23T17:20:44;91978.63;;;11.73;51.22
18137;BME280;9194;42.632;23.298;2024-03-23T17:25:45;91993.56;;;11.77;49.93
18137;BME280;9194;42.632;23.298;2024-03-23T17:30:47;91981.88;;;11.80;49.67
18137;BME280;9194;42.632;23.298;2024-03-23T17:35:49;91977.66;;;12.01;48.71
18137;BME280;9194;42.632;23.298;2024-03-23T17:40:56;91979.97;;;11.97;49.53
18137;BME280;9194;42.632;23.298;2024-03-23T17:45:57;91988.63;;;11.76;50.57
18137;BME280;9194;42.632;23.298;2024-03-23T17:51:05;91978.06;;;11.87;49.89
18137;BME280;9194;42.632;23.298;2024-03-23T17:56:07;91986.78;;;11.76;50.18
18137;BME280;9194;42.632;23.298;2024-03-23T18:01:08;91985.03;;;11.82;50.18
18137;BME280;9194;42.632;23.298;2024-03-23T18:06:10;91984.59;;;11.90;49.86
18137;BME280;9194;42.632;23.298;2024-03-23T18:11:11;91978.41;;;11.74;50.54
18137;BME280;9194;42.632;23.298;2024-03-23T18:16:13;91986.84;;;11.81;49.59
18137;BME280;9194;42.632;23.298;2024-03-23T18:21:14;91975.06;;;11.79;48.95
18137;BME280;9194;42.632;23.298;2024-03-23T18:26:15;91975.56;;;11.76;49.46
18137;BME280;9194;42.632;23.298;2024-03-23T18:31:17;91977.53;;;11.69;49.92
18137;BME280;9194;42.632;23.298;2024-03-23T18:36:18;91986.28;;;11.79;49.98
18137;BME280;9194;42.632;23.298;2024-03-23T18:41:22;91992.88;;;11.65;50.27
18137;BME280;9194;42.632;23.298;2024-03-23T18:46:24;91981.13;;;11.63;50.81
18137;BME280;9194;42.632;23.298;2024-03-23T18:51:26;91977.31;;;11.70;49.93
18137;BME280;9194;42.632;23.298;2024-03-23T18:56:29;91956.81;;;11.57;50.53
18137;BME280;9194;42.632;23.298;2024-03-23T19:01:30;91962.69;;;11.69;49.63
18137;BME280;9194;42.632;23.298;2024-03-23T19:06:32;91960.72;;;11.76;49.94
18137;BME280;9194;42.632;23.298;2024-03-23T19:11:33;91974.16;;;11.68;49.92
18137;BME280;9194;42.632;23.298;2024-03-23T19:16:34;91974.81;;;11.59;50.25
18137;BME280;9194;42.632;23.298;2024-03-23T19:21:35;91984.00;;;11.66;49.10
18137;BME280;9194;42.632;23.298;2024-03-23T19:26:36;91969.97;;;11.67;49.23
18137;BME280;9194;42.632;23.298;2024-03-23T19:31:38;91960.06;;;11.47;50.64
18137;BME280;9194;42.632;23.298;2024-03-23T19:36:39;91974.50;;;11.55;49.88
18137;BME280;9194;42.632;23.298;2024-03-23T19:41:40;91986.50;;;11.56;49.36
18137;BME280;9194;42.632;23.298;2024-03-23T19:46:43;91988.78;;;11.31;49.86
18137;BME280;9194;42.632;23.298;2024-03-23T19:51:45;91982.28;;;11.11;49.55
18137;BME280;9194;42.632;23.298;2024-03-23T19:56:46;91968.63;;;11.04;49.22
18137;BME280;9194;42.632;23.298;2024-03-23T20:01:48;91984.81;;;11.06;49.98
18137;BME280;9194;42.632;23.298;2024-03-23T20:06:49;91976.22;;;10.89;51.38
18137;BME280;9194;42.632;23.298;2024-03-23T20:11:50;91980.47;;;10.95;50.91
18137;BME280;9194;42.632;23.298;2024-03-23T20:16:52;91973.13;;;11.09;51.30
18137;BME280;9194;42.632;23.298;2024-03-23T20:21:54;91973.34;;;11.07;52.25
18137;BME280;9194;42.632;23.298;2024-03-23T20:26:56;91981.53;;;10.94;52.89
18137;BME280;9194;42.632;23.298;2024-03-23T20:32:00;91988.47;;;10.89;53.37
18137;BME280;9194;42.632;23.298;2024-03-23T20:37:03;91984.38;;;10.76;54.05
18137;BME280;9194;42.632;23.298;2024-03-23T20:42:05;91989.16;;;10.67;54.03
18137;BME280;9194;42.632;23.298;2024-03-23T20:47:06;91990.59;;;10.42;54.99
18137;BME280;9194;42.632;23.298;2024-03-23T20:52:08;91989.47;;;10.38;54.46
18137;BME280;9194;42.632;23.298;2024-03-23T20:57:09;92001.47;;;10.10;55.95
18137;BME280;9194;42.632;23.298;2024-03-23T21:02:11;92003.69;;;9.38;58.87
18137;BME280;9194;42.632;23.298;2024-03-23T21:07:12;92009.03;;;9.08;58.64
18137;BME280;9194;42.632;23.298;2024-03-23T21:12:13;92013.69;;;8.83;60.35
18137;BME280;9194;42.632;23.298;2024-03-23T21:17:14;92023.16;;;8.78;60.69
18137;BME280;9194;42.632;23.298;2024-03-23T21:22:15;92016.69;;;8.57;63.34
18137;BME280;9194;42.632;23.298;2024-03-23T21:27:17;92006.75;;;8.42;63.58
18137;BME280;9194;42.632;23.298;2024-03-23T21:32:18;92008.16;;;8.27;64.58
18137;BME280;9194;42.632;23.298;2024-03-23T21:37:22;92015.53;;;7.81;71.30
18137;BME280;9194;42.632;23.298;2024-03-23T21:42:23;92022.00;;;7.61;71.62
18137;BME280;9194;42.632;23.298;2024-03-23T21:47:24;92024.31;;;7.51;70.39
18137;BME280;9194;42.632;23.298;2024-03-23T21:52:26;92032.28;;;7.31;75.74
18137;BME280;9194;42.632;23.298;2024-03-23T21:57:27;92030.69;;;7.12;77.56
18137;BME280;9194;42.632;23.298;2024-03-23T22:02:28;92021.63;;;7.03;76.30
18137;BME280;9194;42.632;23.298;2024-03-23T22:07:29;92027.50;;;6.91;78.37
18137;BME280;9194;42.632;23.298;2024-03-23T22:12:31;92032.22;;;6.76;79.86
18137;BME280;9194;42.632;23.298;2024-03-23T22:17:32;92032.50;;;6.68;81.03
18137;BME280;9194;42.632;23.298;2024-03-23T22:22:34;92026.16;;;6.64;80.15
18137;BME280;9194;42.632;23.298;2024-03-23T22:27:35;92035.50;;;6.65;81.22
18137;BME280;9194;42.632;23.298;2024-03-23T22:32:36;92030.00;;;6.55;82.25
18137;BME280;9194;42.632;23.298;2024-03-23T22:37:40;92021.94;;;6.45;82.38
18137;BME280;9194;42.632;23.298;2024-03-23T22:42:41;92033.41;;;6.24;84.77
18137;BME280;9194;42.632;23.298;2024-03-23T22:47:42;92040.63;;;6.15;86.95
18137;BME280;9194;42.632;23.298;2024-03-23T22:52:44;92021.16;;;6.13;87.20
18137;BME280;9194;42.632;23.298;2024-03-23T22:57:46;92031.13;;;6.09;87.57
18137;BME280;9194;42.632;23.298;2024-03-23T23:02:48;92028.59;;;6.03;87.47
18137;BME280;9194;42.632;23.298;2024-03-23T23:07:49;92025.63;;;5.99;86.79
18137;BME280;9194;42.632;23.298;2024-03-23T23:12:50;92014.63;;;6.10;87.54
18137;BME280;9194;42.632;23.298;2024-03-23T23:17:52;92008.72;;;6.03;87.93
18137;BME280;9194;42.632;23.298;2024-03-23T23:22:53;92013.53;;;6.00;87.74
18137;BME280;9194;42.632;23.298;2024-03-23T23:27:55;92007.75;;;5.98;88.61
18137;BME280;9194;42.632;23.298;2024-03-23T23:32:56;91982.97;;;5.90;87.04
18137;BME280;9194;42.632;23.298;2024-03-23T23:37:58;91991.09;;;5.94;87.72
18137;BME280;9194;42.632;23.298;2024-03-23T23:42:59;91984.34;;;5.86;88.22
18137;BME280;9194;42.632;23.298;2024-03-23T23:48:00;91983.75;;;5.84;87.03
18137;BME280;9194;42.632;23.298;2024-03-23T23:53:02;91996.72;;;5.77;87.97
18137;BME280;9194;42.632;23.298;2024-03-23T23:58:03;91987.81;;;5.73;87.11
